Time;durP1;ratioP1;P1;durP2;ratioP2;P2;SDS_P1;SDS_P2;PMS_P1;PMS_P2;Temp;Humidity;BMP_temperature;BMP_pressure;BME280_temperature;BME280_humidity;BME280_pressure;Samples;Min_cycle;Max_cycle;Signal;HPM_P1;HPM_P2
2023/01/02 00:01:04;;;;;;;8.43;4.93;;;;;;;10.59;100.00;100828.81;5006799;28;20033;-67
2023/01/02 00:03:30;;;;;;;11.95;5.43;;;;;;;10.63;100.00;100830.69;5010178;28;20072;-68
2023/01/02 00:05:55;;;;;;;6.47;4.40;;;;;;;10.62;100.00;100821.13;5010657;28;20030;-68
2023/01/02 00:08:20;;;;;;;9.40;5.18;;;;;;;10.64;100.00;100827.25;5021474;28;20048;-68
2023/01/02 00:10:46;;;;;;;9.10;5.30;;;;;;;10.62;100.00;100836.69;5023149;28;20021;-67
2023/01/02 00:13:11;;;;;;;7.57;5.30;;;;;;;10.62;100.00;100836.69;5021295;28;20049;-67
2023/01/02 00:15:37;;;;;;;8.48;4.90;;;;;;;10.63;100.00;100835.88;5024401;28;20033;-68
2023/01/02 00:18:02;;;;;;;10.02;5.13;;;;;;;10.64;100.00;100830.72;5023302;28;20404;-68
2023/01/02 00:20:27;;;;;;;11.57;5.55;;;;;;;10.61;100.00;100828.03;5024118;28;20044;-68
2023/01/02 00:22:52;;;;;;;7.72;5.20;;;;;;;10.61;100.00;100835.81;5023644;28;20512;-67
2023/01/02 00:25:18;;;;;;;11.70;5.57;;;;;;;10.63;100.00;100828.94;5025840;28;20022;-68
2023/01/02 00:27:43;;;;;;;7.60;5.45;;;;;;;10.64;100.00;100819.47;5023998;28;20049;-67
2023/01/02 00:30:09;;;;;;;10.38;5.07;;;;;;;10.61;100.00;100825.47;5026817;28;20454;-67
2023/01/02 00:32:34;;;;;;;10.57;5.45;;;;;;;10.63;100.00;100822.91;5022898;28;20048;-67
2023/01/02 00:35:00;;;;;;;8.55;5.68;;;;;;;10.62;100.00;100816.84;5007496;28;20026;-67
2023/01/02 00:37:25;;;;;;;13.23;5.70;;;;;;;10.63;100.00;100817.72;5022130;28;20091;-67
2023/01/02 00:39:50;;;;;;;9.90;5.38;;;;;;;10.64;100.00;100814.28;5026814;28;20524;-68
2023/01/02 00:42:15;;;;;;;8.07;5.22;;;;;;;10.61;100.00;100806.44;5026236;28;20029;-67
2023/01/02 00:44:41;;;;;;;8.32;4.53;;;;;;;10.60;100.00;100802.94;5026549;28;20107;-67
2023/01/02 00:47:06;;;;;;;11.35;5.05;;;;;;;10.62;100.00;100800.41;5026412;28;20033;-67
2023/01/02 00:49:31;;;;;;;7.78;4.05;;;;;;;10.63;100.00;100818.59;5026830;28;20033;-68
2023/01/02 00:51:56;;;;;;;10.00;5.20;;;;;;;10.66;100.00;100813.53;5025712;28;20184;-67
2023/01/02 00:54:22;;;;;;;8.07;4.82;;;;;;;10.71;100.00;100812.75;5026144;28;20033;-67
2023/01/02 00:56:47;;;;;;;8.90;4.75;;;;;;;10.75;100.00;100806.84;5024806;28;20032;-67
2023/01/02 00:59:12;;;;;;;11.93;4.95;;;;;;;10.78;100.00;100796.56;5026184;28;20460;-67
2023/01/02 01:01:37;;;;;;;7.95;4.18;;;;;;;10.80;100.00;100790.63;5026287;28;20025;-68
2023/01/02 01:04:03;;;;;;;8.07;4.45;;;;;;;10.82;100.00;100790.66;5026724;28;20033;-67
2023/01/02 01:06:28;;;;;;;9.38;4.40;;;;;;;10.83;100.00;100788.94;5012153;28;20048;-67
2023/01/02 01:08:53;;;;;;;11.05;4.90;;;;;;;10.83;100.00;100786.34;5026275;28;20483;-67
2023/01/02 01:11:19;;;;;;;5.45;3.40;;;;;;;10.89;100.00;100789.13;5026371;28;20075;-68
2023/01/02 01:13:44;;;;;;;10.20;4.60;;;;;;;10.92;100.00;100784.00;5029850;28;20033;-67
2023/01/02 01:16:16;;;;;;;11.07;4.00;;;;;;;10.94;100.00;100779.75;5028280;28;20029;-67
2023/01/02 01:18:42;;;;;;;6.70;3.85;;;;;;;11.01;100.00;100786.03;5030048;28;20025;-67
2023/01/02 01:21:16;;;;;;;6.88;4.05;;;;;;;11.03;100.00;100782.63;5029447;28;20087;-67
2023/01/02 01:23:41;;;;;;;8.45;4.68;;;;;;;11.04;100.00;100784.38;5029604;28;20029;-68
2023/01/02 01:26:10;;;;;;;8.82;4.07;;;;;;;11.03;100.00;100795.59;5028501;28;20033;-67
2023/01/02 01:28:36;;;;;;;8.27;4.50;;;;;;;11.08;100.00;100794.88;5029367;28;20033;-67
2023/01/02 01:31:10;;;;;;;8.27;4.03;;;;;;;11.08;100.00;100790.53;5028933;28;20030;-66
2023/01/02 01:33:37;;;;;;;9.43;4.03;;;;;;;11.13;100.00;100782.91;5018497;28;20401;-67
2023/01/02 01:36:08;;;;;;;7.70;4.07;;;;;;;11.15;100.00;100789.03;5014633;28;20314;-67
2023/01/02 01:38:33;;;;;;;8.73;4.00;;;;;;;11.17;100.00;100784.75;5017673;28;20033;-67
2023/01/02 01:40:59;;;;;;;7.50;3.70;;;;;;;11.17;100.00;100790.81;5023100;28;20049;-68
2023/01/02 01:43:43;;;;;;;12.82;4.15;;;;;;;11.20;100.00;100794.31;5010776;28;20060;-67
2023/01/02 01:46:41;;;;;;;9.55;3.58;;;;;;;11.23;100.00;100795.28;5010687;28;20076;-67
2023/01/02 01:49:11;;;;;;;10.27;3.90;;;;;;;11.21;100.00;100799.56;5011536;28;20137;-68
2023/01/02 01:51:45;;;;;;;9.05;4.85;;;;;;;11.21;100.00;100801.25;5010868;28;20054;-68
2023/01/02 01:54:14;;;;;;;8.20;4.22;;;;;;;11.17;100.00;100798.59;5010740;28;20033;-67
2023/01/02 01:56:44;;;;;;;8.40;4.50;;;;;;;11.13;100.00;100796.75;5012231;28;20036;-68
2023/01/02 01:59:11;;;;;;;11.52;4.80;;;;;;;11.11;100.00;100810.50;5019667;28;20114;-67
2023/01/02 02:01:39;;;;;;;12.95;5.00;;;;;;;11.12;100.00;100807.06;5014974;28;20025;-67
2023/01/02 02:04:05;;;;;;;7.60;4.53;;;;;;;11.10;100.00;100794.06;5011693;28;20026;-67
2023/01/02 02:06:30;;;;;;;12.60;4.28;;;;;;;11.09;100.00;100806.97;5012381;28;20021;-67
2023/01/02 02:09:06;;;;;;;6.35;4.40;;;;;;;11.11;100.00;100813.09;5010841;28;20030;-67
2023/01/02 02:11:31;;;;;;;8.13;4.13;;;;;;;11.10;100.00;100804.44;5011994;28;20026;-67
2023/01/02 02:13:58;;;;;;;9.52;4.35;;;;;;;11.10;100.00;100813.94;5009793;28;20083;-67
2023/01/02 02:16:44;;;;;;;11.23;4.53;;;;;;;11.11;100.00;100814.00;5012081;28;20042;-67
2023/01/02 02:19:36;;;;;;;9.45;4.70;;;;;;;11.15;100.00;100805.44;5002263;28;20045;-67
2023/01/02 02:22:10;;;;;;;12.73;4.50;;;;;;;11.13;100.00;100804.53;5010501;28;20041;-68
2023/01/02 02:25:12;;;;;;;7.93;3.78;;;;;;;11.13;100.00;100809.72;5021822;28;20029;-67
2023/01/02 02:28:18;;;;;;;6.28;3.80;;;;;;;11.13;100.00;100809.72;5012935;28;20075;-67
2023/01/02 02:30:57;;;;;;;9.23;4.05;;;;;;;11.14;100.00;100818.38;5015220;28;20036;-68
2023/01/02 02:33:50;;;;;;;12.38;4.40;;;;;;;11.16;100.00;100814.09;5027131;28;20056;-68
2023/01/02 02:36:39;;;;;;;9.20;3.88;;;;;;;11.14;100.00;100811.47;5008821;28;20068;-68
2023/01/02 02:39:46;;;;;;;12.05;4.53;;;;;;;11.20;100.00;100799.50;5010280;28;20432;-67
2023/01/02 02:42:30;;;;;;;8.85;3.80;;;;;;;11.22;100.00;100805.63;5010415;28;20104;-67
2023/01/02 02:45:15;;;;;;;8.38;4.10;;;;;;;11.26;100.00;100810.09;5009625;28;20080;-67
2023/01/02 02:47:52;;;;;;;8.63;3.58;;;;;;;11.26;100.00;100813.53;5009914;28;20029;-67
2023/01/02 02:50:30;;;;;;;5.43;4.25;;;;;;;11.25;100.00;100809.19;5010299;28;20025;-67
2023/01/02 02:53:04;;;;;;;8.27;4.20;;;;;;;11.26;100.00;100810.94;5009457;28;20073;-67
2023/01/02 02:55:45;;;;;;;9.15;3.33;;;;;;;11.27;100.00;100802.34;5010711;28;20025;-67
2023/01/02 02:58:13;;;;;;;9.38;3.58;;;;;;;11.29;100.00;100812.75;5010978;28;20113;-67
2023/01/02 03:00:38;;;;;;;7.72;3.85;;;;;;;11.28;100.00;100814.47;5009628;28;20033;-67
2023/01/02 03:03:21;;;;;;;7.63;3.40;;;;;;;11.29;100.00;100816.25;5010217;28;20097;-67
2023/01/02 03:06:07;;;;;;;7.18;3.83;;;;;;;11.28;100.00;100805.78;5008395;28;20038;-67
2023/01/02 03:08:54;;;;;;;8.63;3.72;;;;;;;11.26;100.00;100804.91;5010499;28;20037;-68
2023/01/02 03:11:25;;;;;;;9.82;3.95;;;;;;;11.24;100.00;100802.22;5010452;28;20022;-68
2023/01/02 03:14:10;;;;;;;;;;;;;;;11.22;100.00;100803.94;5010059;28;20026;-68
2023/01/02 03:16:39;;;;;;;11.68;4.20;;;;;;;11.21;100.00;100802.16;5009464;28;20445;-68
2023/01/02 03:19:21;;;;;;;9.90;3.60;;;;;;;11.18;100.00;100796.88;5009760;28;20014;-68
2023/01/02 03:21:56;;;;;;;7.47;3.95;;;;;;;11.16;100.00;100795.94;5009612;28;20033;-68
2023/01/02 03:24:23;;;;;;;6.82;3.78;;;;;;;11.13;100.00;100801.06;5021199;28;20036;-67
2023/01/02 03:26:53;;;;;;;8.35;4.72;;;;;;;11.10;100.00;100798.38;5028024;28;20465;-67
2023/01/02 03:29:27;;;;;;;9.70;3.58;;;;;;;11.08;100.00;100795.72;5026081;28;20021;-67
2023/01/02 03:31:55;;;;;;;8.02;3.72;;;;;;;11.08;100.00;100792.28;5008946;28;20030;-67
2023/01/02 03:34:25;;;;;;;11.75;4.15;;;;;;;11.11;100.00;100792.34;5027378;28;20064;-68
2023/01/02 03:36:59;;;;;;;10.57;4.68;;;;;;;11.11;100.00;100800.13;5027490;28;20037;-68
2023/01/02 03:39:28;;;;;;;7.18;3.65;;;;;;;11.10;100.00;100799.25;5027705;28;20194;-67
2023/01/02 03:42:02;;;;;;;8.90;3.50;;;;;;;11.11;100.00;100810.50;5027057;28;20037;-67
2023/01/02 03:44:35;;;;;;;7.20;3.72;;;;;;;11.14;100.00;100815.78;5015849;28;20036;-67
2023/01/02 03:47:12;;;;;;;10.10;3.47;;;;;;;11.13;100.00;100819.22;5027381;28;20029;-68
2023/01/02 03:49:42;;;;;;;6.50;4.03;;;;;;;11.14;100.00;100808.00;5027428;28;20129;-67
2023/01/02 03:52:07;;;;;;;7.43;3.55;;;;;;;11.14;100.00;100813.19;5025962;28;20091;-67
2023/01/02 03:54:33;;;;;;;7.00;3.22;;;;;;;11.12;100.00;100815.72;5027023;28;20571;-68
2023/01/02 03:57:07;;;;;;;6.53;3.80;;;;;;;11.13;100.00;100825.28;5026435;28;20040;-68
2023/01/02 03:59:47;;;;;;;8.15;3.63;;;;;;;11.14;100.00;100828.75;5027546;28;20096;-68
2023/01/02 04:02:49;;;;;;;6.13;3.27;;;;;;;11.14;100.00;100823.56;5026882;28;20478;-68
2023/01/02 04:05:42;;;;;;;5.22;3.22;;;;;;;11.17;100.00;100821.06;5008435;28;20064;-68
2023/01/02 04:08:15;;;;;;;7.65;3.13;;;;;;;11.18;100.00;100822.81;5007754;28;20041;-68
2023/01/02 04:10:44;;;;;;;7.32;3.10;;;;;;;11.16;100.00;100829.66;5010760;28;20060;-68
2023/01/02 04:13:16;;;;;;;8.13;3.95;;;;;;;11.16;100.00;100834.84;5027476;28;20030;-68
2023/01/02 04:15:44;;;;;;;7.38;3.78;;;;;;;11.13;100.00;100830.47;5026513;28;20040;-68
2023/01/02 04:18:34;;;;;;;6.47;3.33;;;;;;;11.13;100.00;100825.28;5026081;28;20076;-68
2023/01/02 04:21:06;;;;;;;5.85;3.33;;;;;;;11.10;100.00;100822.59;5025544;28;20021;-67
2023/01/02 04:23:38;;;;;;;6.88;3.80;;;;;;;11.11;100.00;100841.63;5024606;28;20030;-69
2023/01/02 04:26:10;;;;;;;7.20;3.33;;;;;;;11.10;100.00;100843.31;5025816;28;20537;-68
2023/01/02 04:28:35;;;;;;;7.75;3.53;;;;;;;11.08;100.00;100851.91;5025346;28;20474;-68
2023/01/02 04:31:12;;;;;;;11.52;4.13;;;;;;;11.07;100.00;100845.84;5026535;28;20083;-68
2023/01/02 04:33:48;;;;;;;10.38;4.03;;;;;;;11.07;100.00;100850.13;5027099;28;20075;-68
2023/01/02 04:36:15;;;;;;;7.18;3.70;;;;;;;11.06;100.00;100857.06;5027161;28;20052;-68
2023/01/02 04:38:41;;;;;;;14.20;4.10;;;;;;;11.08;100.00;100851.91;5026515;28;20038;-68
2023/01/02 04:41:08;;;;;;;8.95;3.50;;;;;;;11.05;100.00;100843.19;5026670;28;20029;-68
2023/01/02 04:43:34;;;;;;;10.05;4.22;;;;;;;11.03;100.00;100855.25;5026751;28;20037;-68
2023/01/02 04:45:59;;;;;;;6.88;3.90;;;;;;;11.03;100.00;100855.25;5026668;28;20022;-68
2023/01/02 04:48:24;;;;;;;8.07;3.92;;;;;;;11.07;100.00;100860.50;5030005;28;20033;-68
2023/01/02 04:50:52;;;;;;;5.82;3.08;;;;;;;11.07;100.00;100865.69;5029704;28;20116;-68
2023/01/02 04:53:17;;;;;;;5.13;3.47;;;;;;;11.08;100.00;100862.28;5018152;28;20539;-68
2023/01/02 04:55:42;;;;;;;6.65;3.63;;;;;;;11.07;100.00;100865.69;5030361;28;20288;-68
2023/01/02 04:58:08;;;;;;;10.93;3.80;;;;;;;11.05;100.00;100863.06;5030207;28;20785;-68
2023/01/02 05:00:33;;;;;;;8.98;3.75;;;;;;;11.05;100.00;100868.25;5029411;28;20040;-68
2023/01/02 05:03:01;;;;;;;9.65;3.65;;;;;;;11.05;100.00;100873.44;5030460;28;20919;-68
2023/01/02 05:05:26;;;;;;;9.95;4.18;;;;;;;11.03;100.00;100878.56;5029044;28;20420;-68
2023/01/02 05:07:52;;;;;;;5.68;3.33;;;;;;;11.04;100.00;100882.91;5030260;28;20033;-68
2023/01/02 05:10:17;;;;;;;8.38;3.97;;;;;;;11.05;100.00;100882.09;5029963;28;20529;-68
2023/01/02 05:12:42;;;;;;;7.53;3.10;;;;;;;11.05;100.00;100884.69;5030143;28;20029;-68
2023/01/02 05:15:09;;;;;;;11.77;3.33;;;;;;;11.07;100.00;100876.06;5028966;28;20091;-68
2023/01/02 05:17:37;;;;;;;4.70;3.00;;;;;;;11.09;100.00;100879.59;5011049;28;20021;-68
2023/01/02 05:20:04;;;;;;;7.30;3.72;;;;;;;11.09;100.00;100879.59;5010664;28;20172;-68
2023/01/02 05:25:14;;;;;;;6.85;3.15;;;;;;;11.09;100.00;100884.78;5010575;28;20057;-68
2023/01/02 05:27:39;;;;;;;8.30;3.50;;;;;;;11.13;100.00;100884.94;5013195;28;20037;-68
2023/01/02 05:30:05;;;;;;;4.72;2.63;;;;;;;11.14;100.00;100886.69;5030084;28;20465;-68
2023/01/02 05:32:31;;;;;;;3.80;2.90;;;;;;;11.16;100.00;100884.13;5029762;28;20112;-68
2023/01/02 05:34:56;;;;;;;5.40;2.53;;;;;;;11.15;100.00;100896.22;5016955;28;20029;-68
2023/01/02 05:37:21;;;;;;;3.45;2.58;;;;;;;11.17;100.00;100898.88;5021717;28;20029;-68
2023/01/02 05:39:46;;;;;;;4.75;2.95;;;;;;;11.16;100.00;100907.47;5010139;28;20408;-68
2023/01/02 05:42:12;;;;;;;5.25;2.85;;;;;;;11.16;100.00;100908.38;5029628;28;20484;-69
2023/01/02 05:44:37;;;;;;;4.10;2.45;;;;;;;11.17;100.00;100904.06;5029105;28;20036;-67
2023/01/02 05:47:02;;;;;;;5.95;2.42;;;;;;;11.17;100.00;100909.25;5030006;28;20038;-68
2023/01/02 05:49:27;;;;;;;3.85;2.33;;;;;;;11.17;100.00;100915.31;5028764;28;20512;-68
2023/01/02 05:51:53;;;;;;;5.68;2.75;;;;;;;11.19;100.00;100927.44;5028964;28;20049;-68
2023/01/02 05:54:18;;;;;;;5.22;2.10;;;;;;;11.18;100.00;100921.38;5027795;28;20434;-68
2023/01/02 05:56:43;;;;;;;5.18;2.83;;;;;;;11.19;100.00;100927.44;5028718;28;20025;-68
2023/01/02 05:59:08;;;;;;;6.53;3.10;;;;;;;11.20;100.00;100930.09;5027956;28;20091;-68
2023/01/02 06:01:34;;;;;;;6.45;2.53;;;;;;;11.22;100.00;100928.44;5028395;28;20029;-68
2023/01/02 06:04:00;;;;;;;4.35;2.22;;;;;;;11.24;100.00;100921.53;5026546;28;20021;-68
2023/01/02 06:06:30;;;;;;;4.88;2.10;;;;;;;11.24;100.00;100928.47;5028369;28;20025;-68
2023/01/02 06:08:57;;;;;;;5.20;2.60;;;;;;;11.23;100.00;100930.19;5027491;28;20030;-69
2023/01/02 06:11:22;;;;;;;3.72;2.30;;;;;;;11.23;100.00;100935.38;5028754;28;20028;-68
2023/01/02 06:13:48;;;;;;;6.47;3.20;;;;;;;11.19;100.00;100933.50;5028200;28;20022;-68
2023/01/02 06:16:13;;;;;;;6.90;2.40;;;;;;;11.18;100.00;100947.31;5028293;28;20029;-68
2023/01/02 06:18:39;;;;;;;6.40;2.58;;;;;;;11.12;100.00;100948.00;5026696;28;20471;-68
2023/01/02 06:21:08;;;;;;;5.38;2.40;;;;;;;11.09;100.00;100957.41;5028539;28;20029;-68
2023/01/02 06:23:34;;;;;;;7.22;2.88;;;;;;;11.05;100.00;100952.13;5027424;28;20478;-67
2023/01/02 06:26:05;;;;;;;6.40;3.17;;;;;;;10.97;100.00;100961.38;5028849;28;20036;-67
2023/01/02 06:28:30;;;;;;;4.28;3.08;;;;;;;10.91;100.00;100969.81;5027983;28;20041;-67
2023/01/02 06:31:06;;;;;;;4.38;2.72;;;;;;;10.89;100.00;100983.56;5028795;28;20016;-67
2023/01/02 06:33:32;;;;;;;5.60;2.67;;;;;;;10.85;100.00;100984.31;5025581;28;20064;-66
2023/01/02 06:35:59;;;;;;;3.35;2.35;;;;;;;10.81;100.00;101004.06;5009590;28;20615;-66
2023/01/02 06:38:24;;;;;;;3.15;2.10;;;;;;;10.74;100.00;101036.66;5010018;28;20080;-67
2023/01/02 06:40:54;;;;;;;2.25;1.45;;;;;;;10.63;100.00;101030.22;5008739;28;20030;-67
2023/01/02 06:43:20;;;;;;;1.98;1.10;;;;;;;10.51;100.00;101028.97;5009314;28;20440;-67
2023/01/02 06:45:45;;;;;;;1.13;0.60;;;;;;;10.44;100.00;101035.59;5009245;28;20096;-67
2023/01/02 06:48:11;;;;;;;2.60;1.05;;;;;;;10.40;100.00;101048.38;5009078;28;20462;-68
2023/01/02 06:50:36;;;;;;;1.25;0.70;;;;;;;10.36;100.00;101057.75;5009034;28;20030;-67
2023/01/02 06:53:01;;;;;;;0.63;0.60;;;;;;;10.28;100.00;101065.25;5008457;28;20033;-67
2023/01/02 06:55:27;;;;;;;1.38;0.73;;;;;;;10.17;100.00;101077.78;5020228;28;20420;-67
2023/01/02 06:57:52;;;;;;;0.75;0.30;;;;;;;10.08;100.00;101070.56;5023813;28;20048;-67
2023/01/02 07:00:17;;;;;;;0.82;0.40;;;;;;;10.04;100.00;101081.63;5009095;28;20557;-67
2023/01/02 07:02:43;;;;;;;0.68;0.50;;;;;;;9.97;100.00;101079.63;5025798;28;20114;-69
2023/01/02 07:05:09;;;;;;;0.30;0.30;;;;;;;9.90;100.00;101099.22;5028063;28;20032;-67
2023/01/02 07:07:35;;;;;;;0.63;0.52;;;;;;;9.88;100.00;101102.56;5027058;28;20104;-67
2023/01/02 07:10:00;;;;;;;0.38;0.38;;;;;;;9.82;100.00;101117.03;5027366;28;20448;-67
2023/01/02 07:12:26;;;;;;;1.15;0.40;;;;;;;9.77;100.00;101115.97;5026675;28;20018;-67
2023/01/02 07:14:51;;;;;;;0.40;0.40;;;;;;;9.73;100.00;101122.72;5027722;28;20032;-66
2023/01/02 07:17:16;;;;;;;0.73;0.73;;;;;;;9.71;100.00;101137.31;5026797;28;20401;-67
2023/01/02 07:19:41;;;;;;;0.70;0.52;;;;;;;9.68;100.00;101147.53;5026836;28;20028;-67
2023/01/02 07:22:07;;;;;;;0.90;0.60;;;;;;;9.61;100.00;101148.09;5025432;28;20028;-67
2023/01/02 07:24:32;;;;;;;1.10;0.75;;;;;;;9.54;100.00;101157.31;5027358;28;20382;-67
2023/01/02 07:26:57;;;;;;;2.15;1.20;;;;;;;9.50;100.00;101165.78;5026619;28;20021;-67
2023/01/02 07:29:22;;;;;;;1.23;1.13;;;;;;;9.46;100.00;101163.91;5027393;28;20036;-67
2023/01/02 07:31:48;;;;;;;1.73;1.45;;;;;;;9.43;100.00;101184.44;5027579;28;20056;-66
2023/01/02 07:34:13;;;;;;;1.95;1.40;;;;;;;9.39;100.00;101182.56;5018362;28;20097;-67
2023/01/02 07:36:38;;;;;;;2.10;1.77;;;;;;;9.37;100.00;101185.94;5008026;28;20026;-67
2023/01/02 07:39:03;;;;;;;1.75;1.65;;;;;;;9.35;100.00;101192.75;5016682;28;20025;-67
2023/01/02 07:41:29;;;;;;;1.45;1.35;;;;;;;9.33;100.00;101186.66;5025697;28;20429;-66
2023/01/02 07:43:57;;;;;;;2.38;2.13;;;;;;;9.31;100.00;101195.16;5008339;28;20030;-67
2023/01/02 07:46:23;;;;;;;2.10;1.90;;;;;;;9.28;100.00;101206.28;5007486;28;20079;-66
2023/01/02 07:48:49;;;;;;;2.30;2.10;;;;;;;9.24;100.00;101214.69;5017812;28;20470;-66
2023/01/02 07:51:14;;;;;;;4.47;2.60;;;;;;;9.21;100.00;101220.59;5006670;28;20154;-66
2023/01/02 07:53:40;;;;;;;4.43;2.50;;;;;;;9.21;100.00;101224.94;5006687;28;20570;-67
2023/01/02 07:56:06;;;;;;;3.08;2.80;;;;;;;9.19;100.00;101232.59;5008121;28;20501;-67
2023/01/02 07:58:31;;;;;;;4.10;3.42;;;;;;;9.19;100.00;101236.91;5007374;28;20022;-66
2023/01/02 08:00:57;;;;;;;4.47;3.50;;;;;;;9.18;100.00;101245.44;5013334;28;20068;-66
2023/01/02 08:03:23;;;;;;;3.67;3.38;;;;;;;9.16;100.00;101247.06;5025362;28;20513;-66
2023/01/02 08:05:49;;;;;;;4.05;3.38;;;;;;;9.13;100.00;101259.09;5010950;28;20014;-66
2023/01/02 08:08:14;;;;;;;4.70;3.72;;;;;;;9.10;100.00;101253.75;5008868;28;20026;-67
2023/01/02 08:10:39;;;;;;;5.85;3.95;;;;;;;9.11;100.00;101267.56;5010217;28;20303;-67
2023/01/02 08:13:05;;;;;;;5.30;4.80;;;;;;;9.08;100.00;101270.91;5008992;28;20030;-66
2023/01/02 08:15:30;;;;;;;4.85;4.40;;;;;;;9.08;100.00;101275.19;5010226;28;20031;-67
2023/01/02 08:17:57;;;;;;;6.05;5.55;;;;;;;9.07;100.00;101283.75;5014589;28;20113;-66
2023/01/02 08:20:25;;;;;;;6.85;6.25;;;;;;;9.06;100.00;101293.22;5014084;28;20026;-66
2023/01/02 08:22:51;;;;;;;7.63;6.93;;;;;;;9.03;100.00;101293.06;5013873;28;20036;-66
2023/01/02 08:25:16;;;;;;;7.90;6.50;;;;;;;9.01;100.00;101294.72;5013407;28;20578;-67
2023/01/02 08:27:42;;;;;;;6.88;6.28;;;;;;;9.01;100.00;101299.91;5010814;28;20106;-66
2023/01/02 08:30:07;;;;;;;7.13;6.43;;;;;;;9.00;100.00;101303.28;5016253;28;20029;-66
2023/01/02 08:32:37;;;;;;;7.40;6.70;;;;;;;8.98;100.00;101304.91;5018540;28;20063;-67
2023/01/02 08:35:07;;;;;;;6.68;5.45;;;;;;;8.96;100.00;101311.72;5010313;28;20022;-66
2023/01/02 08:37:32;;;;;;;6.93;6.30;;;;;;;8.91;100.00;101318.34;5017121;28;20034;-67
2023/01/02 08:39:58;;;;;;;6.97;6.00;;;;;;;8.88;100.00;101322.59;5022608;28;20030;-67
2023/01/02 08:42:23;;;;;;;6.40;5.80;;;;;;;8.85;100.00;101322.41;5014941;28;20030;-67
2023/01/02 08:44:48;;;;;;;6.43;5.82;;;;;;;8.81;100.00;101323.13;5017403;28;20465;-67
2023/01/02 08:47:14;;;;;;;5.82;5.40;;;;;;;8.80;100.00;101336.84;5013413;28;20064;-67
2023/01/02 08:49:39;;;;;;;6.20;5.63;;;;;;;8.80;100.00;101335.94;5016964;28;20021;-67
2023/01/02 08:52:04;;;;;;;10.30;5.88;;;;;;;8.79;100.00;101335.06;5014962;28;20060;-67
2023/01/02 08:54:30;;;;;;;6.22;5.65;;;;;;;8.76;100.00;101340.97;5022543;28;20025;-67
2023/01/02 08:56:55;;;;;;;6.53;5.88;;;;;;;8.75;100.00;101359.00;5015279;28;20077;-67
2023/01/02 08:59:23;;;;;;;6.07;5.57;;;;;;;8.73;100.00;101369.25;5014987;28;20385;-68
2023/01/02 09:01:49;;;;;;;6.47;5.93;;;;;;;8.72;100.00;101367.50;5019459;28;20121;-67
2023/01/02 09:04:14;;;;;;;6.63;5.55;;;;;;;8.71;100.00;101362.22;5017102;28;20497;-67
2023/01/02 09:06:42;;;;;;;6.63;6.03;;;;;;;8.72;100.00;101361.44;5015543;28;20054;-68
2023/01/02 09:09:08;;;;;;;7.07;6.38;;;;;;;8.71;100.00;101362.22;5016180;28;20030;-67
2023/01/02 09:11:36;;;;;;;5.80;5.00;;;;;;;8.71;100.00;101372.56;5008584;28;20328;-67
2023/01/02 09:14:04;;;;;;;8.35;5.68;;;;;;;8.69;100.00;101374.22;5019788;28;20034;-68
2023/01/02 09:16:30;;;;;;;6.50;5.90;;;;;;;8.70;100.00;101381.13;5023546;28;20098;-68
2023/01/02 09:18:58;;;;;;;7.43;5.72;;;;;;;8.69;100.00;101390.56;5016376;28;20084;-67
2023/01/02 09:21:23;;;;;;;7.55;5.30;;;;;;;8.67;100.00;101401.66;5010802;28;20069;-68
2023/01/02 09:23:48;;;;;;;5.93;5.32;;;;;;;8.67;100.00;101412.00;5017354;28;20061;-68
2023/01/02 09:26:14;;;;;;;5.65;5.15;;;;;;;8.67;100.00;101410.28;5013689;28;20037;-67
2023/01/02 09:28:40;;;;;;;6.03;4.75;;;;;;;8.64;100.00;101428.22;5006841;28;20065;-67
2023/01/02 09:31:07;;;;;;;5.20;4.70;;;;;;;8.65;100.00;101435.19;5019482;28;20021;-67
2023/01/02 09:33:33;;;;;;;6.07;4.70;;;;;;;8.63;100.00;101423.88;5025319;28;20064;-68
2023/01/02 09:36:06;;;;;;;4.82;4.13;;;;;;;8.63;100.00;101424.75;5014186;28;20030;-68
2023/01/02 09:38:31;;;;;;;4.40;4.00;;;;;;;8.64;100.00;101431.72;5012141;28;20018;-68
2023/01/02 09:40:59;;;;;;;4.85;4.32;;;;;;;8.65;100.00;101443.81;5015138;28;20512;-67
2023/01/02 09:43:41;;;;;;;5.75;4.70;;;;;;;8.67;100.00;101440.44;5020964;28;20433;-67
2023/01/02 09:46:19;;;;;;;4.25;3.85;;;;;;;8.68;100.00;101444.78;5020009;28;20075;-67
2023/01/02 09:48:44;;;;;;;5.22;4.72;;;;;;;8.69;100.00;101441.41;5010843;28;20490;-67
2023/01/02 09:51:11;;;;;;;6.53;4.13;;;;;;;8.72;100.00;101446.72;5014368;28;20136;-68
2023/01/02 09:53:36;;;;;;;5.07;3.72;;;;;;;8.76;100.00;101449.50;5025452;28;20025;-68
2023/01/02 09:56:46;;;;;;;4.72;3.38;;;;;;;8.79;100.00;101453.94;5022855;28;20163;-67
2023/01/02 09:59:30;;;;;;;4.13;3.53;;;;;;;8.84;100.00;101457.66;4913894;29;20144;-68
2023/01/02 10:02:29;;;;;;;4.22;3.50;;;;;;;8.85;100.00;101464.56;4913825;29;20410;-68
2023/01/02 10:05:09;;;;;;;4.72;3.33;;;;;;;8.85;100.00;101456.81;4999772;28;20037;-67
2023/01/02 10:08:00;;;;;;;5.30;3.80;;;;;;;8.81;100.00;101457.50;5022277;28;20033;-68
2023/01/02 10:10:42;;;;;;;3.70;3.08;;;;;;;8.80;100.00;101460.88;5015392;28;20084;-68
2023/01/02 10:13:30;;;;;;;4.22;3.40;;;;;;;8.80;100.00;101473.81;5022351;28;20024;-67
2023/01/02 10:15:59;;;;;;;4.20;3.10;;;;;;;8.79;100.00;101469.47;5012004;28;20362;-67
2023/01/02 10:18:44;;;;;;;4.32;3.33;;;;;;;8.76;100.00;101475.34;5012046;28;20509;-68
2023/01/02 10:21:14;;;;;;;4.90;3.08;;;;;;;8.70;100.00;101480.22;5021269;28;20026;-67
2023/01/02 10:23:55;;;;;;;3.45;3.15;;;;;;;8.69;100.00;101477.56;5011157;28;20301;-67
2023/01/02 10:26:26;;;;;;;4.15;3.28;;;;;;;8.68;100.00;101473.19;5013183;28;20464;-67
2023/01/02 10:29:04;;;;;;;4.45;3.20;;;;;;;8.65;100.00;101464.47;5018955;28;20052;-68
2023/01/02 10:31:42;;;;;;;5.03;2.97;;;;;;;8.65;100.00;101467.06;5009092;28;20036;-67
2023/01/02 10:34:34;;;;;;;6.10;3.95;;;;;;;8.65;100.00;101472.22;5019116;28;20026;-67
2023/01/02 10:36:59;;;;;;;5.50;3.88;;;;;;;8.68;100.00;101475.78;5014648;28;20386;-67
2023/01/02 10:39:30;;;;;;;5.57;3.95;;;;;;;8.68;100.00;101491.28;5020086;28;20121;-67
2023/01/02 10:41:58;;;;;;;9.05;4.65;;;;;;;8.69;100.00;101493.06;5020696;28;20108;-67
2023/01/02 10:44:28;;;;;;;3.70;3.35;;;;;;;8.69;100.00;101493.06;5015508;28;20084;-67
2023/01/02 10:46:54;;;;;;;4.38;3.50;;;;;;;8.69;100.00;101483.59;5017556;28;20029;-67
2023/01/02 10:49:22;;;;;;;4.45;4.05;;;;;;;8.68;100.00;101487.00;5018928;28;20024;-67
2023/01/02 10:51:54;;;;;;;6.57;4.57;;;;;;;8.64;100.00;101480.81;5016669;28;20096;-67
2023/01/02 10:54:20;;;;;;;8.43;4.68;;;;;;;8.60;100.00;101489.19;5014881;28;20539;-67
2023/01/02 10:56:49;;;;;;;4.88;4.28;;;;;;;8.61;100.00;101485.81;5016157;28;20109;-68
2023/01/02 10:59:26;;;;;;;5.38;4.72;;;;;;;8.59;100.00;101487.44;5015451;28;20017;-67
2023/01/02 11:01:57;;;;;;;5.90;5.30;;;;;;;8.60;100.00;101496.94;5021632;28;20072;-67
2023/01/02 11:04:25;;;;;;;7.47;5.80;;;;;;;8.60;100.00;101494.38;5016104;28;20044;-66
2023/01/02 11:06:57;;;;;;;7.50;5.93;;;;;;;8.62;100.00;101508.25;5006333;28;20034;-66
2023/01/02 11:09:24;;;;;;;9.45;6.78;;;;;;;8.61;100.00;101509.06;5006840;28;20033;-66
2023/01/02 11:11:53;;;;;;;8.23;6.45;;;;;;;8.63;100.00;101510.00;5007134;28;20045;-66
2023/01/02 11:14:25;;;;;;;9.07;7.25;;;;;;;8.67;100.00;101512.78;5007468;28;20037;-66
2023/01/02 11:16:51;;;;;;;7.93;6.63;;;;;;;8.71;100.00;101513.00;5007147;28;20061;-66
2023/01/02 11:19:21;;;;;;;8.77;7.38;;;;;;;8.76;100.00;101515.84;5007111;28;20029;-66
2023/01/02 11:21:48;;;;;;;8.00;7.22;;;;;;;8.79;100.00;101513.41;5008515;28;20497;-67
2023/01/02 11:24:18;;;;;;;8.27;7.47;;;;;;;8.76;100.00;101508.94;5009543;28;20806;-67
2023/01/02 11:26:46;;;;;;;8.57;6.90;;;;;;;8.77;100.00;101517.59;5010722;28;20038;-67
2023/01/02 11:29:16;;;;;;;11.55;8.07;;;;;;;8.77;100.00;101527.94;5023728;28;20029;-66
2023/01/02 11:31:51;;;;;;;9.35;7.97;;;;;;;8.74;100.00;101526.06;5027808;28;20100;-66
2023/01/02 11:34:22;;;;;;;10.40;8.10;;;;;;;8.74;100.00;101540.69;5018735;28;20056;-66